Time;durP1;ratioP1;P1;durP2;ratioP2;P2;SDS_P1;SDS_P2;PMS_P1;PMS_P2;Temp;Humidity;BMP_temperature;BMP_pressure;BME280_temperature;BME280_humidity;BME280_pressure;Samples;Min_cycle;Max_cycle;Signal;HPM_P1;HPM_P2
2022/05/23 00:00:04;;;;;;;;;41.67;36.33;;;;;;;;5077137;27;45664;-76
2022/05/23 00:02:29;;;;;;;;;41.67;36.00;;;;;;;;5077133;28;45375;-76
2022/05/23 00:04:55;;;;;;;;;42.00;35.33;;;;;;;;5077275;27;45466;-74
2022/05/23 00:07:24;;;;;;;;;40.00;34.33;;;;;;;;5077483;27;45399;-74
2022/05/23 00:09:50;;;;;;;;;43.00;36.00;;;;;;;;5077128;27;46623;-75
2022/05/23 00:12:15;;;;;;;;;45.67;37.67;;;;;;;;5077107;27;45228;-74
2022/05/23 00:14:42;;;;;;;;;49.33;37.00;;;;;;;;5076927;27;45491;-75
2022/05/23 00:17:07;;;;;;;;;39.00;33.67;;;;;;;;5092921;27;45477;-75
2022/05/23 00:19:32;;;;;;;;;44.00;36.33;;;;;;;;5096895;27;46068;-76
2022/05/23 00:21:57;;;;;;;;;41.00;35.67;;;;;;;;5082909;27;45508;-73
2022/05/23 00:24:23;;;;;;;;;46.00;38.00;;;;;;;;5077163;28;45529;-75
2022/05/23 00:26:49;;;;;;;;;47.67;38.00;;;;;;;;5077231;27;45394;-75
2022/05/23 00:29:14;;;;;;;;;48.00;37.67;;;;;;;;5077761;27;46417;-75
2022/05/23 00:35:17;;;;;;;;;40.33;36.33;;;;;;;;5080437;27;45445;-75
2022/05/23 00:37:09;;;;;;;;;46.33;38.33;;;;;;;;5076691;28;45691;-75
2022/05/23 00:39:37;;;;;;;;;46.00;37.33;;;;;;;;5076752;27;46116;-75
2022/05/23 00:44:47;;;;;;;;;42.67;35.00;;;;;;;;5076602;27;45414;-75
2022/05/23 00:47:17;;;;;;;;;47.00;37.33;;;;;;;;5090073;27;45411;-75
2022/05/23 00:49:42;;;;;;;;;42.00;34.67;;;;;;;;5082291;27;45500;-76
2022/05/23 00:52:09;;;;;;;;;38.00;33.67;;;;;;;;5078300;27;45570;-75
2022/05/23 00:54:37;;;;;;;;;43.67;36.33;;;;;;;;5076215;27;45706;-76
2022/05/23 00:57:03;;;;;;;;;43.00;35.67;;;;;;;;5075793;27;45784;-76
2022/05/23 00:59:30;;;;;;;;;43.67;37.33;;;;;;;;5075301;27;45698;-75
2022/05/23 01:01:55;;;;;;;;;43.00;37.33;;;;;;;;5079719;27;45877;-76
2022/05/23 01:04:21;;;;;;;;;43.33;36.67;;;;;;;;5079171;27;45702;-76
2022/05/23 01:06:48;;;;;;;;;48.33;38.00;;;;;;;;5079301;27;45288;-77
2022/05/23 01:09:14;;;;;;;;;46.67;38.00;;;;;;;;5079001;27;45627;-76
2022/05/23 01:11:39;;;;;;;;;42.67;34.67;;;;;;;;5078699;27;45390;-76
2022/05/23 01:14:05;;;;;;;;;45.67;38.67;;;;;;;;5079273;27;45427;-75
2022/05/23 01:16:31;;;;;;;;;42.00;37.00;;;;;;;;5079128;27;45473;-75
2022/05/23 01:18:56;;;;;;;;;42.67;35.33;;;;;;;;5078886;27;45523;-75
2022/05/23 01:21:43;;;;;;;;;41.33;35.33;;;;;;;;5078851;28;45571;-75
2022/05/23 01:24:15;;;;;;;;;46.67;36.67;;;;;;;;5078813;27;45404;-75
2022/05/23 01:26:41;;;;;;;;;42.33;36.33;;;;;;;;5078841;27;45324;-75
2022/05/23 01:29:13;;;;;;;;;42.67;34.67;;;;;;;;5078675;28;45402;-75
2022/05/23 01:31:41;;;;;;;;;44.67;37.33;;;;;;;;5078576;27;45378;-75
2022/05/23 01:34:06;;;;;;;;;50.00;37.33;;;;;;;;5078618;27;45360;-76
2022/05/23 01:36:32;;;;;;;;;44.67;36.67;;;;;;;;5079048;28;45377;-78
2022/05/23 01:38:57;;;;;;;;;44.00;36.00;;;;;;;;5078466;27;45410;-78
2022/05/23 01:41:22;;;;;;;;;46.33;35.00;;;;;;;;5078649;27;45506;-77
2022/05/23 01:43:47;;;;;;;;;49.33;37.67;;;;;;;;5078728;27;45504;-78
2022/05/23 01:46:16;;;;;;;;;42.33;35.33;;;;;;;;5078623;27;45438;-78
2022/05/23 01:48:46;;;;;;;;;48.00;37.67;;;;;;;;5078433;27;46727;-78
2022/05/23 01:51:18;;;;;;;;;41.67;35.67;;;;;;;;5078005;27;45521;-76
2022/05/23 01:53:45;;;;;;;;;48.33;37.67;;;;;;;;5078369;27;45721;-76
2022/05/23 01:56:13;;;;;;;;;47.67;40.67;;;;;;;;5078771;28;45455;-76
2022/05/23 02:01:25;;;;;;;;;45.67;38.33;;;;;;;;5078146;28;45526;-76
2022/05/23 02:03:50;;;;;;;;;47.67;35.67;;;;;;;;5078814;28;45274;-76
2022/05/23 02:06:16;;;;;;;;;53.00;41.00;;;;;;;;5078705;27;45406;-76
2022/05/23 02:08:41;;;;;;;;;40.33;36.67;;;;;;;;5078183;27;46293;-76
2022/05/23 02:11:06;;;;;;;;;53.67;42.00;;;;;;;;5077936;28;45355;-75
2022/05/23 02:13:33;;;;;;;;;53.00;41.67;;;;;;;;5078332;27;45338;-76
2022/05/23 02:15:58;;;;;;;;;49.67;40.00;;;;;;;;5074721;28;45474;-76
2022/05/23 02:18:23;;;;;;;;;50.67;40.00;;;;;;;;5078154;28;45927;-76
2022/05/23 02:20:49;;;;;;;;;55.00;43.00;;;;;;;;5078697;27;45236;-76
2022/05/23 02:23:16;;;;;;;;;50.00;41.33;;;;;;;;5079743;28;45303;-76
2022/05/23 02:25:41;;;;;;;;;57.00;44.33;;;;;;;;5079959;27;45838;-76
2022/05/23 02:28:09;;;;;;;;;54.00;42.00;;;;;;;;5077802;28;46086;-76
2022/05/23 02:30:34;;;;;;;;;48.67;40.67;;;;;;;;5077848;27;45494;-75
2022/05/23 02:33:02;;;;;;;;;58.33;45.00;;;;;;;;5077858;27;45529;-76
2022/05/23 02:35:27;;;;;;;;;53.67;43.00;;;;;;;;5078211;28;45338;-75
2022/05/23 02:37:54;;;;;;;;;49.33;41.00;;;;;;;;5077206;27;45318;-76
2022/05/23 02:40:20;;;;;;;;;49.67;41.00;;;;;;;;5077912;28;45560;-75
2022/05/23 02:42:48;;;;;;;;;51.00;42.00;;;;;;;;5077758;28;45422;-75
2022/05/23 02:45:13;;;;;;;;;48.67;39.00;;;;;;;;5077664;27;45534;-74
2022/05/23 02:47:39;;;;;;;;;52.67;42.67;;;;;;;;5077613;27;45513;-75
2022/05/23 02:50:05;;;;;;;;;53.00;43.00;;;;;;;;5077493;27;45366;-75
2022/05/23 02:52:30;;;;;;;;;38.00;33.67;;;;;;;;5077496;28;45421;-75
2022/05/23 02:54:55;;;;;;;;;56.67;45.67;;;;;;;;5077609;27;45447;-75
2022/05/23 02:57:21;;;;;;;;;51.00;41.33;;;;;;;;5077162;28;45744;-75
2022/05/23 02:59:46;;;;;;;;;53.67;43.00;;;;;;;;5077535;28;46319;-75
2022/05/23 03:04:55;;;;;;;;;49.00;41.00;;;;;;;;5077566;28;45540;-75
2022/05/23 03:07:20;;;;;;;;;54.00;43.33;;;;;;;;5077107;28;45741;-76
2022/05/23 03:09:46;;;;;;;;;53.00;43.33;;;;;;;;5077112;28;45406;-75
2022/05/23 03:12:11;;;;;;;;;50.33;40.67;;;;;;;;5077220;27;45349;-76
2022/05/23 03:14:37;;;;;;;;;51.33;41.33;;;;;;;;5077271;28;45280;-76
2022/05/23 03:17:03;;;;;;;;;50.00;40.00;;;;;;;;5077173;27;46540;-76
2022/05/23 03:19:29;;;;;;;;;50.67;41.00;;;;;;;;5073498;28;45422;-76
2022/05/23 03:27:22;;;;;;;;;51.67;41.33;;;;;;;;5076929;28;45386;-76
2022/05/23 03:29:47;;;;;;;;;52.33;44.00;;;;;;;;5076948;28;45390;-75
2022/05/23 03:32:13;;;;;;;;;54.00;43.00;;;;;;;;5077024;27;45482;-75
2022/05/23 03:34:38;;;;;;;;;51.00;42.33;;;;;;;;5077049;28;45359;-76
2022/05/23 03:37:05;;;;;;;;;50.67;42.67;;;;;;;;5081846;27;45322;-75
2022/05/23 03:39:30;;;;;;;;;51.33;40.00;;;;;;;;5070414;27;45494;-76
2022/05/23 03:41:55;;;;;;;;;53.67;44.00;;;;;;;;5058286;28;45716;-76
2022/05/23 03:44:20;;;;;;;;;56.00;43.67;;;;;;;;5058368;28;45454;-76
2022/05/23 03:46:45;;;;;;;;;55.33;45.67;;;;;;;;5058792;28;45500;-76
2022/05/23 03:49:11;;;;;;;;;57.33;45.67;;;;;;;;5061064;28;45364;-76
2022/05/23 03:51:37;;;;;;;;;56.00;45.33;;;;;;;;5078331;28;45666;-76
2022/05/23 03:54:03;;;;;;;;;51.00;43.33;;;;;;;;5078204;27;45363;-75
2022/05/23 03:56:28;;;;;;;;;53.00;43.67;;;;;;;;5077742;27;47229;-77
2022/05/23 03:58:53;;;;;;;;;55.67;43.00;;;;;;;;5077843;27;45283;-76
2022/05/23 04:01:21;;;;;;;;;59.33;45.00;;;;;;;;5077834;27;45400;-77
2022/05/23 04:03:46;;;;;;;;;54.67;44.00;;;;;;;;5078236;27;45483;-76
2022/05/23 04:06:12;;;;;;;;;59.67;44.33;;;;;;;;5077736;27;45301;-75
2022/05/23 04:08:37;;;;;;;;;52.00;42.67;;;;;;;;5077453;27;45422;-74
2022/05/23 04:11:03;;;;;;;;;58.00;44.33;;;;;;;;5078216;28;45303;-74
2022/05/23 04:13:28;;;;;;;;;56.00;44.00;;;;;;;;5078079;27;45429;-74
2022/05/23 04:15:54;;;;;;;;;55.00;44.67;;;;;;;;5077877;27;45325;-75
2022/05/23 04:18:19;;;;;;;;;60.00;46.67;;;;;;;;5077873;28;45512;-75
2022/05/23 04:20:44;;;;;;;;;54.67;44.00;;;;;;;;5077426;27;45291;-75
2022/05/23 04:23:10;;;;;;;;;55.00;44.33;;;;;;;;5062903;28;45243;-75
2022/05/23 04:25:42;;;;;;;;;53.67;42.67;;;;;;;;5074478;27;46068;-75
2022/05/23 04:28:08;;;;;;;;;54.75;45.50;;;;;;;;5074911;27;45376;-75
2022/05/23 04:30:33;;;;;;;;;53.00;44.00;;;;;;;;5063134;27;45471;-75
2022/05/23 04:35:51;;;;;;;;;53.33;44.33;;;;;;;;5048422;28;45606;-75
2022/05/23 04:38:17;;;;;;;;;57.00;45.00;;;;;;;;5057108;28;45280;-75
2022/05/23 04:40:42;;;;;;;;;60.00;46.00;;;;;;;;5057092;28;45219;-76
2022/05/23 04:43:07;;;;;;;;;54.67;44.00;;;;;;;;5061708;28;45335;-75
2022/05/23 04:45:33;;;;;;;;;56.33;45.67;;;;;;;;5076777;27;47246;-75
2022/05/23 04:50:42;;;;;;;;;54.67;43.33;;;;;;;;5077419;28;45273;-75
2022/05/23 04:53:07;;;;;;;;;53.33;44.33;;;;;;;;5077413;27;45476;-75
2022/05/23 04:55:37;;;;;;;;;52.67;40.33;;;;;;;;5076996;27;46209;-75
2022/05/23 04:58:02;;;;;;;;;56.33;45.67;;;;;;;;5076647;27;45464;-76
2022/05/23 05:00:29;;;;;;;;;59.00;46.75;;;;;;;;5077242;27;45473;-75
2022/05/23 05:02:59;;;;;;;;;52.67;44.00;;;;;;;;5076215;28;45465;-75
2022/05/23 05:05:24;;;;;;;;;52.00;42.00;;;;;;;;5076843;27;45375;-75
2022/05/23 05:07:50;;;;;;;;;61.67;46.33;;;;;;;;5076884;27;45326;-75
2022/05/23 05:10:15;;;;;;;;;53.67;43.67;;;;;;;;5056979;28;45147;-75
2022/05/23 05:12:40;;;;;;;;;57.00;42.50;;;;;;;;5056734;28;45425;-75
2022/05/23 05:15:06;;;;;;;;;59.00;46.67;;;;;;;;5056477;28;46487;-75
2022/05/23 05:17:31;;;;;;;;;56.00;45.33;;;;;;;;5056383;28;45345;-75
2022/05/23 05:19:56;;;;;;;;;55.00;43.00;;;;;;;;5059803;28;45424;-75
2022/05/23 05:22:21;;;;;;;;;72.00;55.75;;;;;;;;5056536;28;45355;-76
2022/05/23 05:24:47;;;;;;;;;52.67;43.33;;;;;;;;5056265;28;46680;-75
2022/05/23 05:27:12;;;;;;;;;52.00;43.33;;;;;;;;5056580;28;45476;-75
2022/05/23 05:29:38;;;;;;;;;53.67;44.33;;;;;;;;5056775;28;45465;-75
2022/05/23 05:32:12;;;;;;;;;54.00;44.33;;;;;;;;5056910;28;45460;-75
2022/05/23 05:34:49;;;;;;;;;59.33;45.00;;;;;;;;5056485;28;46414;-75
2022/05/23 05:37:19;;;;;;;;;53.33;44.67;;;;;;;;5056261;28;45312;-75
2022/05/23 05:39:46;;;;;;;;;151.67;142.33;;;;;;;;5056432;28;45403;-75
2022/05/23 05:42:14;;;;;;;;;66.50;51.00;;;;;;;;5056740;28;45837;-75
2022/05/23 05:44:44;;;;;;;;;67.00;51.75;;;;;;;;5056013;28;46340;-75
2022/05/23 05:47:11;;;;;;;;;62.50;49.00;;;;;;;;5058580;28;45480;-75
2022/05/23 05:49:38;;;;;;;;;61.00;49.25;;;;;;;;5060009;28;45509;-75
2022/05/23 05:52:05;;;;;;;;;65.50;51.25;;;;;;;;5059865;28;45389;-75
2022/05/23 05:54:30;;;;;;;;;65.50;50.75;;;;;;;;5059243;28;46581;-75
2022/05/23 05:56:57;;;;;;;;;59.25;48.75;;;;;;;;5059577;28;45229;-75
2022/05/23 05:59:23;;;;;;;;;63.75;49.00;;;;;;;;5059516;28;45513;-75
2022/05/23 06:01:48;;;;;;;;;65.00;51.75;;;;;;;;5058695;28;45577;-75
2022/05/23 06:04:13;;;;;;;;;65.00;50.25;;;;;;;;5059437;28;45526;-75
2022/05/23 06:12:07;;;;;;;;;64.25;52.25;;;;;;;;5064516;28;45340;-75
2022/05/23 06:14:32;;;;;;;;;61.75;49.75;;;;;;;;5079170;27;46232;-75
2022/05/23 06:16:57;;;;;;;;;68.00;53.75;;;;;;;;5079447;28;45332;-75
2022/05/23 06:19:23;;;;;;;;;60.50;49.75;;;;;;;;5079663;27;45204;-75
2022/05/23 06:21:48;;;;;;;;;62.25;50.25;;;;;;;;5079857;27;45315;-75
2022/05/23 06:24:14;;;;;;;;;61.00;49.25;;;;;;;;5079415;27;47234;-75
2022/05/23 06:26:40;;;;;;;;;79.00;65.25;;;;;;;;5078824;27;45291;-75
2022/05/23 06:29:05;;;;;;;;;64.25;49.25;;;;;;;;5079459;28;45295;-71
2022/05/23 06:31:30;;;;;;;;;67.25;53.75;;;;;;;;5079789;27;45387;-75
2022/05/23 06:33:55;;;;;;;;;76.00;63.25;;;;;;;;5079173;28;46468;-75
2022/05/23 06:36:21;;;;;;;;;68.25;54.00;;;;;;;;5079401;27;45491;-75
2022/05/23 06:38:47;;;;;;;;;64.50;51.75;;;;;;;;5079421;27;45437;-75
2022/05/23 06:41:12;;;;;;;;;66.50;53.50;;;;;;;;5063085;28;45402;-75
2022/05/23 06:43:39;;;;;;;;;71.00;55.00;;;;;;;;5058896;28;45322;-75
2022/05/23 06:46:04;;;;;;;;;69.25;54.25;;;;;;;;5058675;28;45478;-75
2022/05/23 06:48:30;;;;;;;;;69.50;54.75;;;;;;;;5059039;28;45265;-75
2022/05/23 06:50:56;;;;;;;;;62.75;51.00;;;;;;;;5059123;28;45295;-74
2022/05/23 06:53:22;;;;;;;;;66.00;51.50;;;;;;;;5058826;28;46201;-75
2022/05/23 06:55:48;;;;;;;;;69.75;55.25;;;;;;;;5058768;28;45292;-75
2022/05/23 06:58:13;;;;;;;;;72.75;55.25;;;;;;;;5057308;28;45257;-75
2022/05/23 07:00:38;;;;;;;;;72.75;55.00;;;;;;;;5059302;28;45304;-74
2022/05/23 07:03:04;;;;;;;;;73.25;55.00;;;;;;;;5059573;28;47162;-75
2022/05/23 07:13:41;;;;;;;;;70.75;57.25;;;;;;;;5059187;28;45803;-75
2022/05/23 07:16:07;;;;;;;;;73.00;59.75;;;;;;;;5058222;28;45328;-75
2022/05/23 07:18:32;;;;;;;;;76.00;64.75;;;;;;;;5058669;28;45237;-75
2022/05/23 07:20:57;;;;;;;;;70.75;57.25;;;;;;;;5058656;28;45358;-75
2022/05/23 07:23:22;;;;;;;;;70.25;55.75;;;;;;;;5058295;28;45424;-75
2022/05/23 07:25:48;;;;;;;;;71.25;57.00;;;;;;;;5058125;28;45367;-74
2022/05/23 07:28:13;;;;;;;;;72.50;58.25;;;;;;;;5058161;28;45332;-74
2022/05/23 07:30:39;;;;;;;;;68.50;55.75;;;;;;;;5058386;28;45468;-75
2022/05/23 07:33:04;;;;;;;;;71.75;56.75;;;;;;;;5057885;28;46357;-75
2022/05/23 07:35:29;;;;;;;;;70.25;56.25;;;;;;;;5058042;28;45359;-75
2022/05/23 07:37:55;;;;;;;;;73.50;57.00;;;;;;;;5058162;28;45206;-75
2022/05/23 07:40:20;;;;;;;;;73.75;58.25;;;;;;;;5059606;28;45297;-75
2022/05/23 07:42:46;;;;;;;;;72.00;57.50;;;;;;;;5076706;28;46702;-74
2022/05/23 07:45:12;;;;;;;;;70.00;53.75;;;;;;;;5076411;27;45335;-75
2022/05/23 07:47:38;;;;;;;;;77.25;56.75;;;;;;;;5057615;28;45310;-75
2022/05/23 07:50:07;;;;;;;;;74.00;58.00;;;;;;;;5057809;28;45422;-75
2022/05/23 07:52:33;;;;;;;;;69.50;53.25;;;;;;;;5057492;28;47392;-75
2022/05/23 08:00:32;;;;;;;;;65.00;52.00;;;;;;;;5062964;28;45238;-74
2022/05/23 08:02:59;;;;;;;;;64.50;50.25;;;;;;;;5077726;27;46503;-74
2022/05/23 08:05:24;;;;;;;;;65.00;50.25;;;;;;;;5077674;27;45387;-75
2022/05/23 08:07:49;;;;;;;;;68.00;52.50;;;;;;;;5069142;27;45347;-76
2022/05/23 08:10:15;;;;;;;;;66.00;53.25;;;;;;;;5077289;27;45565;-75
2022/05/23 08:12:43;;;;;;;;;64.75;52.75;;;;;;;;5077713;27;45469;-75
2022/05/23 08:15:08;;;;;;;;;64.75;50.75;;;;;;;;5077746;27;45299;-75
2022/05/23 08:17:33;;;;;;;;;61.25;47.00;;;;;;;;5077669;27;45211;-75
2022/05/23 08:19:58;;;;;;;;;65.75;48.75;;;;;;;;5077540;27;45505;-75
2022/05/23 08:22:25;;;;;;;;;61.25;49.00;;;;;;;;5077340;27;46554;-75
2022/05/23 08:24:50;;;;;;;;;58.75;46.75;;;;;;;;5077677;27;45632;-75
2022/05/23 08:27:16;;;;;;;;;66.25;51.00;;;;;;;;5077291;27;45438;-75
2022/05/23 08:29:41;;;;;;;;;66.00;52.00;;;;;;;;5077342;28;45547;-74
2022/05/23 08:32:07;;;;;;;;;64.00;51.00;;;;;;;;5077471;27;46632;-74
2022/05/23 08:34:32;;;;;;;;;65.00;52.50;;;;;;;;5077282;27;45435;-75
2022/05/23 08:36:58;;;;;;;;;65.25;49.75;;;;;;;;5077123;27;45473;-75
2022/05/23 08:39:24;;;;;;;;;64.50;49.75;;;;;;;;5075674;27;45473;-74
2022/05/23 08:41:50;;;;;;;;;68.50;53.50;;;;;;;;5077028;27;46140;-74
2022/05/23 08:44:23;;;;;;;;;65.50;51.00;;;;;;;;5077387;27;45309;-75
2022/05/23 08:47:05;;;;;;;;;64.75;50.75;;;;;;;;5076949;27;45570;-74
2022/05/23 08:49:39;;;;;;;;;66.75;53.25;;;;;;;;5076048;27;45392;-74
2022/05/23 08:52:05;;;;;;;;;62.75;49.00;;;;;;;;5076822;27;47041;-75
2022/05/23 08:54:51;;;;;;;;;64.50;52.25;;;;;;;;5077175;28;45264;-75
2022/05/23 08:57:42;;;;;;;;;59.75;47.75;;;;;;;;5077072;27;45357;-75
2022/05/23 09:00:14;;;;;;;;;61.75;49.25;;;;;;;;5075191;28;45418;-75
2022/05/23 09:02:51;;;;;;;;;62.75;48.50;;;;;;;;5075195;27;46173;-75
2022/05/23 09:05:22;;;;;;;;;71.50;60.25;;;;;;;;5076059;27;45336;-74
2022/05/23 09:07:51;;;;;;;;;66.25;52.75;;;;;;;;5077441;28;45357;-75
2022/05/23 09:10:23;;;;;;;;;65.50;51.75;;;;;;;;5077324;27;45304;-75
2022/05/23 09:12:52;;;;;;;;;67.75;53.25;;;;;;;;5076189;27;46935;-75
2022/05/23 09:15:17;;;;;;;;;69.00;50.75;;;;;;;;5077064;27;45419;-75
2022/05/23 09:17:45;;;;;;;;;59.00;47.00;;;;;;;;5075080;28;45387;-75
2022/05/23 09:20:16;;;;;;;;;62.25;50.50;;;;;;;;5073106;27;45555;-75
2022/05/23 09:22:45;;;;;;;;;66.25;53.25;;;;;;;;5077904;27;46627;-75
2022/05/23 09:25:12;;;;;;;;;62.25;48.75;;;;;;;;5074832;27;45201;-75
2022/05/23 09:27:39;;;;;;;;;62.00;49.75;;;;;;;;5060064;28;45436;-75
2022/05/23 09:30:06;;;;;;;;;61.50;49.00;;;;;;;;5060090;28;45324;-75
2022/05/23 09:32:38;;;;;;;;;66.75;52.25;;;;;;;;5059922;28;47364;-75
2022/05/23 09:35:13;;;;;;;;;64.50;51.50;;;;;;;;5059870;28;45279;-75
2022/05/23 09:37:39;;;;;;;;;59.50;47.75;;;;;;;;5060102;28;45352;-75
2022/05/23 09:40:05;;;;;;;;;57.00;47.00;;;;;;;;5060235;28;45304;-75
2022/05/23 09:48:12;;;;;;;;;62.00;47.75;;;;;;;;5059630;28;45395;-75
2022/05/23 09:50:39;;;;;;;;;58.33;45.67;;;;;;;;5060096;28;45423;-75
2022/05/23 09:53:05;;;;;;;;;56.00;44.33;;;;;;;;5059459;28;46152;-75
2022/05/23 09:55:33;;;;;;;;;58.33;45.67;;;;;;;;5069701;28;45447;-75
2022/05/23 09:58:03;;;;;;;;;53.67;43.67;;;;;;;;5070859;27;45370;-74
2022/05/23 10:00:32;;;;;;;;;51.33;42.33;;;;;;;;5100488;27;45527;-75
2022/05/23 10:02:59;;;;;;;;;59.00;47.50;;;;;;;;5099960;27;46291;-75
2022/05/23 10:05:25;;;;;;;;;59.00;45.00;;;;;;;;5100215;27;45440;-75
2022/05/23 10:07:53;;;;;;;;;59.00;48.67;;;;;;;;5100334;27;45244;-75
2022/05/23 10:10:18;;;;;;;;;57.00;44.33;;;;;;;;5100497;27;45281;-75
2022/05/23 10:12:44;;;;;;;;;54.67;43.33;;;;;;;;5099856;27;45346;-75
2022/05/23 10:15:12;;;;;;;;;44.00;37.67;;;;;;;;5100132;27;45158;-75
2022/05/23 10:17:39;;;;;;;;;68.00;54.25;;;;;;;;5100449;27;45377;-74
2022/05/23 10:20:16;;;;;;;;;48.33;39.00;;;;;;;;5100243;27;45957;-75
2022/05/23 10:22:53;;;;;;;;;52.67;42.00;;;;;;;;5099687;27;46131;-75
2022/05/23 10:25:19;;;;;;;;;48.67;39.33;;;;;;;;5100070;27;45454;-74
2022/05/23 10:27:51;;;;;;;;;36.67;30.00;;;;;;;;5099809;27;45342;-75
2022/05/23 10:30:19;;;;;;;;;38.00;32.00;;;;;;;;5100247;27;45249;-74
2022/05/23 10:32:48;;;;;;;;;36.67;33.00;;;;;;;;5099620;27;46238;-75
2022/05/23 10:35:28;;;;;;;;;37.00;31.00;;;;;;;;5099671;27;45374;-74
2022/05/23 10:42:07;;;;;;;;;33.67;31.67;;;;;;;;5099804;27;45395;-75
2022/05/23 10:43:24;;;;;;;;;36.33;31.67;;;;;;;;5099433;27;45722;-74
2022/05/23 10:45:49;;;;;;;;;38.00;33.33;;;;;;;;5099558;27;45393;-75
2022/05/23 10:48:15;;;;;;;;;38.00;34.00;;;;;;;;5099637;27;45276;-74
2022/05/23 10:50:40;;;;;;;;;43.33;34.33;;;;;;;;5099712;27;45217;-74
2022/05/23 10:53:07;;;;;;;;;45.33;36.33;;;;;;;;5099565;27;46579;-74
2022/05/23 10:55:53;;;;;;;;;43.00;34.67;;;;;;;;5099383;27;45368;-74
2022/05/23 10:58:36;;;;;;;;;39.67;35.67;;;;;;;;5076447;28;45336;-74
2022/05/23 11:01:13;;;;;;;;;46.67;37.33;;;;;;;;5076698;28;45438;-75
2022/05/23 11:04:04;;;;;;;;;38.33;35.00;;;;;;;;5076120;28;46410;-74
2022/05/23 11:06:48;;;;;;;;;45.00;37.33;;;;;;;;5071501;27;45388;-74
2022/05/23 11:09:23;;;;;;;;;41.00;34.00;;;;;;;;5076789;28;45395;-74
2022/05/23 11:11:51;;;;;;;;;45.33;36.33;;;;;;;;5076840;28;45491;-75
2022/05/23 11:14:19;;;;;;;;;43.00;36.00;;;;;;;;5069601;28;46072;-72
2022/05/23 11:16:47;;;;;;;;;49.00;38.00;;;;;;;;5055742;28;45535;-72
2022/05/23 11:19:18;;;;;;;;;39.00;35.33;;;;;;;;5056324;28;45599;-74
2022/05/23 11:22:02;;;;;;;;;32.67;31.67;;;;;;;;5056177;28;45330;-74
2022/05/23 11:24:34;;;;;;;;;37.33;33.00;;;;;;;;5055811;28;47099;-74
2022/05/23 11:35:27;;;;;;;;;36.33;33.67;;;;;;;;5056806;28;45449;-77
2022/05/23 11:37:53;;;;;;;;;42.67;34.00;;;;;;;;5058076;28;45343;-74
2022/05/23 11:40:24;;;;;;;;;47.00;38.00;;;;;;;;5058071;28;45300;-78
2022/05/23 11:42:56;;;;;;;;;42.33;34.67;;;;;;;;5058225;28;45406;-76
2022/05/23 11:48:27;;;;;;;;;40.33;33.00;;;;;;;;5057721;28;45325;-76
2022/05/23 11:50:54;;;;;;;;;53.33;43.33;;;;;;;;5057813;28;45267;-75
2022/05/23 11:53:29;;;;;;;;;39.67;34.67;;;;;;;;5058044;28;45400;-75
2022/05/23 11:55:55;;;;;;;;;43.33;36.33;;;;;;;;5057737;28;46153;-75
2022/05/23 11:58:39;;;;;;;;;43.00;34.67;;;;;;;;5057330;28;45576;-75
2022/05/23 12:01:04;;;;;;;;;34.33;33.00;;;;;;;;5057749;28;45337;-74
2022/05/23 12:03:48;;;;;;;;;37.33;33.33;;;;;;;;5057686;28;45304;-72
2022/05/23 12:06:20;;;;;;;;;36.33;31.67;;;;;;;;5057706;28;45525;-73
2022/05/23 12:08:57;;;;;;;;;34.67;31.33;;;;;;;;5057591;28;45304;-76
2022/05/23 12:11:23;;;;;;;;;42.67;33.33;;;;;;;;5058515;28;45342;-77
2022/05/23 12:13:50;;;;;;;;;36.00;33.33;;;;;;;;5060901;28;45533;-74
2022/05/23 12:16:36;;;;;;;;;34.33;32.67;;;;;;;;5068758;28;47362;-74
2022/05/23 12:19:04;;;;;;;;;29.67;29.67;;;;;;;;5074236;27;45459;-75
2022/05/23 12:21:39;;;;;;;;;40.67;31.67;;;;;;;;5077435;27;45405;-74
2022/05/23 12:24:35;;;;;;;;;30.00;29.00;;;;;;;;5077540;27;45454;-72
2022/05/23 12:27:02;;;;;;;;;32.00;27.67;;;;;;;;5034327;28;45903;-73
2022/05/23 12:29:35;;;;;;;;;32.33;25.67;;;;;;;;5034426;28;45416;-73
2022/05/23 12:32:10;;;;;;;;;28.67;26.00;;;;;;;;5034322;28;45425;-73
2022/05/23 12:34:40;;;;;;;;;25.33;23.00;;;;;;;;5034540;28;45290;-73
2022/05/23 12:37:05;;;;;;;;;26.67;22.33;;;;;;;;5033838;28;46722;-73
2022/05/23 12:39:43;;;;;;;;;25.33;20.67;;;;;;;;5034302;28;45409;-72
2022/05/23 12:42:13;;;;;;;;;24.00;23.67;;;;;;;;5034141;28;45536;-73
2022/05/23 12:44:53;;;;;;;;;23.33;22.33;;;;;;;;5034213;28;45489;-73
2022/05/23 12:47:18;;;;;;;;;25.67;23.33;;;;;;;;5033849;28;46354;-73
2022/05/23 12:49:59;;;;;;;;;22.33;18.33;;;;;;;;5034126;28;45544;-74
2022/05/23 12:52:35;;;;;;;;;20.67;20.67;;;;;;;;5034229;28;45499;-74
2022/05/23 12:55:19;;;;;;;;;24.33;19.00;;;;;;;;5033943;28;45444;-74
2022/05/23 12:58:01;;;;;;;;;25.67;21.33;;;;;;;;5036963;28;45827;-74
2022/05/23 13:00:37;;;;;;;;;15.33;14.67;;;;;;;;5037550;28;45370;-73
2022/05/23 13:03:16;;;;;;;;;19.00;16.00;;;;;;;;5052696;28;45446;-74
2022/05/23 13:05:49;;;;;;;;;18.33;16.33;;;;;;;;5080418;27;45328;-74
2022/05/23 13:08:23;;;;;;;;;18.33;15.00;;;;;;;;5095700;27;45907;-74
2022/05/23 13:10:57;;;;;;;;;19.67;17.67;;;;;;;;5079807;28;45377;-73
2022/05/23 13:13:40;;;;;;;;;24.67;23.33;;;;;;;;5080102;27;45511;-74
2022/05/23 13:16:20;;;;;;;;;20.67;19.33;;;;;;;;5080199;27;45457;-75
2022/05/23 13:24:49;;;;;;;;;18.67;18.67;;;;;;;;5057441;28;45460;-74
2022/05/23 13:27:19;;;;;;;;;23.00;22.00;;;;;;;;5057489;28;45443;-75
2022/05/23 13:29:49;;;;;;;;;21.00;18.67;;;;;;;;5056934;28;46558;-73
2022/05/23 13:32:19;;;;;;;;;25.00;20.00;;;;;;;;5056986;28;45447;-74
2022/05/23 13:34:46;;;;;;;;;24.00;24.00;;;;;;;;5057205;28;45459;-74
2022/05/23 13:37:22;;;;;;;;;22.00;20.33;;;;;;;;5057029;28;45557;-74
2022/05/23 13:39:48;;;;;;;;;18.33;17.33;;;;;;;;5039866;28;46799;-74
2022/05/23 13:42:28;;;;;;;;;15.33;14.67;;;;;;;;5056956;28;45467;-74
2022/05/23 13:45:06;;;;;;;;;21.00;18.00;;;;;;;;5056955;28;45900;-74
2022/05/23 13:47:32;;;;;;;;;15.67;14.33;;;;;;;;5057223;28;45416;-73
2022/05/23 13:50:00;;;;;;;;;18.67;13.00;;;;;;;;5056706;28;45447;-73
2022/05/23 13:52:29;;;;;;;;;13.00;12.33;;;;;;;;5057022;28;45500;-74
2022/05/23 13:55:09;;;;;;;;;18.00;14.00;;;;;;;;5056868;28;45486;-74
2022/05/23 13:57:37;;;;;;;;;46.00;39.67;;;;;;;;5069749;28;45456;-74
2022/05/23 14:00:20;;;;;;;;;13.67;12.33;;;;;;;;5079250;27;45632;-74
2022/05/23 14:03:00;;;;;;;;;15.67;13.33;;;;;;;;5079233;27;45589;-75
2022/05/23 14:05:27;;;;;;;;;17.67;15.00;;;;;;;;5079356;27;45350;-74
2022/05/23 14:07:53;;;;;;;;;14.00;12.67;;;;;;;;5078805;27;45562;-73
2022/05/23 14:10:22;;;;;;;;;15.67;13.00;;;;;;;;5079130;27;45668;-74
2022/05/23 14:12:48;;;;;;;;;13.33;10.33;;;;;;;;5078904;27;45399;-73
2022/05/23 14:15:22;;;;;;;;;17.33;13.67;;;;;;;;5078679;27;45363;-74
2022/05/23 14:17:49;;;;;;;;;12.33;12.33;;;;;;;;5077967;28;45526;-74
2022/05/23 14:20:23;;;;;;;;;11.00;10.33;;;;;;;;5078818;27;45731;-74
2022/05/23 14:23:09;;;;;;;;;19.33;15.33;;;;;;;;5078790;27;45373;-73
2022/05/23 14:25:37;;;;;;;;;13.33;13.00;;;;;;;;5078955;27;45391;-73
2022/05/23 14:28:25;;;;;;;;;13.67;12.67;;;;;;;;5079062;27;45467;-73
2022/05/23 14:30:52;;;;;;;;;11.33;11.33;;;;;;;;5036085;28;46305;-72
2022/05/23 14:33:17;;;;;;;;;11.67;11.67;;;;;;;;5035926;28;45436;-74
2022/05/23 14:35:50;;;;;;;;;18.67;15.00;;;;;;;;5036060;28;45532;-73
2022/05/23 14:38:26;;;;;;;;;16.00;12.67;;;;;;;;5036266;28;45352;-74
2022/05/23 14:41:11;;;;;;;;;13.67;12.67;;;;;;;;5035847;28;45517;-73
2022/05/23 14:43:36;;;;;;;;;10.33;10.33;;;;;;;;5035671;28;45519;-73
2022/05/23 14:46:23;;;;;;;;;10.33;10.33;;;;;;;;5035858;28;45529;-72
2022/05/23 14:49:11;;;;;;;;;20.33;14.33;;;;;;;;5036011;28;45466;-73
2022/05/23 14:51:41;;;;;;;;;33.33;26.00;;;;;;;;5025025;28;46242;-73
2022/05/23 14:57:00;;;;;;;;;13.33;12.00;;;;;;;;5035940;28;45425;-74
2022/05/23 15:02:30;;;;;;;;;15.00;13.00;;;;;;;;5035616;28;45700;-73
2022/05/23 15:05:07;;;;;;;;;13.67;12.33;;;;;;;;5035559;28;45624;-74
2022/05/23 15:07:32;;;;;;;;;20.33;15.33;;;;;;;;5051328;28;45435;-73
2022/05/23 15:09:58;;;;;;;;;18.67;16.67;;;;;;;;5078465;27;45326;-72
2022/05/23 15:12:24;;;;;;;;;41.00;34.33;;;;;;;;5078042;27;46475;-74
2022/05/23 15:14:50;;;;;;;;;19.00;16.33;;;;;;;;5077666;28;45441;-75
2022/05/23 15:17:23;;;;;;;;;20.00;20.00;;;;;;;;5078069;27;45405;-72
2022/05/23 15:19:51;;;;;;;;;24.00;22.00;;;;;;;;5077176;27;45468;-72
2022/05/23 15:22:21;;;;;;;;;29.33;22.67;;;;;;;;5078529;27;46191;-72
2022/05/23 15:24:47;;;;;;;;;27.67;25.67;;;;;;;;5078564;27;45395;-72
2022/05/23 15:27:15;;;;;;;;;25.67;21.33;;;;;;;;5078705;27;45345;-72
2022/05/23 15:29:43;;;;;;;;;23.67;22.00;;;;;;;;5078967;27;45376;-71
2022/05/23 15:32:08;;;;;;;;;22.67;19.67;;;;;;;;5078226;27;45401;-72
2022/05/23 15:34:33;;;;;;;;;30.67;28.67;;;;;;;;5078161;27;45327;-72
2022/05/23 15:37:01;;;;;;;;;30.00;25.33;;;;;;;;5094297;27;45342;-72